sensor_id;sensor_type;location;lat;lon;timestamp;pressure;altitude;pressure_sealevel;temperature;humidity
40850;BME280;26571;41.610;25.380;2023-09-30T00:01:42;98545.59;;;18.57;66.23
40850;BME280;26571;41.610;25.380;2023-09-30T00:04:09;98540.25;;;18.57;66.20
40850;BME280;26571;41.610;25.380;2023-09-30T00:06:34;98543.75;;;18.58;66.35
40850;BME280;26571;41.610;25.380;2023-09-30T00:08:59;98536.91;;;18.37;67.15
40850;BME280;26571;41.610;25.380;2023-09-30T00:11:25;98513.44;;;18.21;66.64
40850;BME280;26571;41.610;25.380;2023-09-30T00:13:50;98538.75;;;18.37;67.12
40850;BME280;26571;41.610;25.380;2023-09-30T00:16:16;98541.66;;;18.35;67.46
40850;BME280;26571;41.610;25.380;2023-09-30T00:18:43;98549.84;;;18.33;67.31
40850;BME280;26571;41.610;25.380;2023-09-30T00:21:08;98532.69;;;18.23;68.09
40850;BME280;26571;41.610;25.380;2023-09-30T00:23:34;98516.56;;;18.04;67.96
40850;BME280;26571;41.610;25.380;2023-09-30T00:25:59;98523.91;;;18.16;68.27
40850;BME280;26571;41.610;25.380;2023-09-30T00:28:26;98526.75;;;18.14;68.12
40850;BME280;26571;41.610;25.380;2023-09-30T00:30:51;98526.41;;;18.11;68.01
40850;BME280;26571;41.610;25.380;2023-09-30T00:33:16;98523.09;;;18.08;68.29
40850;BME280;26571;41.610;25.380;2023-09-30T00:35:42;98525.59;;;18.03;68.48
40850;BME280;26571;41.610;25.380;2023-09-30T00:38:08;98518.03;;;18.00;68.25
40850;BME280;26571;41.610;25.380;2023-09-30T00:40:34;98507.22;;;17.89;69.24
40850;BME280;26571;41.610;25.380;2023-09-30T00:43:00;98514.16;;;17.90;69.25
40850;BME280;26571;41.610;25.380;2023-09-30T00:45:27;98523.38;;;18.00;68.37
40850;BME280;26571;41.610;25.380;2023-09-30T00:47:53;98503.94;;;17.87;68.52
40850;BME280;26571;41.610;25.380;2023-09-30T00:50:20;98520.13;;;17.92;68.91
40850;BME280;26571;41.610;25.380;2023-09-30T00:52:46;98525.88;;;17.82;69.27
40850;BME280;26571;41.610;25.380;2023-09-30T00:55:14;98517.72;;;17.70;69.67
40850;BME280;26571;41.610;25.380;2023-09-30T00:57:40;98513.22;;;17.71;69.57
40850;BME280;26571;41.610;25.380;2023-09-30T01:00:07;98529.19;;;17.77;69.81
40850;BME280;26571;41.610;25.380;2023-09-30T01:02:39;98528.78;;;17.74;69.59
40850;BME280;26571;41.610;25.380;2023-09-30T01:05:04;98529.19;;;17.71;69.38
40850;BME280;26571;41.610;25.380;2023-09-30T01:07:30;98529.38;;;17.69;70.00
40850;BME280;26571;41.610;25.380;2023-09-30T01:09:55;98524.47;;;17.66;69.85
40850;BME280;26571;41.610;25.380;2023-09-30T01:12:21;98525.94;;;17.55;70.71
40850;BME280;26571;41.610;25.380;2023-09-30T01:14:46;98510.00;;;17.42;70.87
40850;BME280;26571;41.610;25.380;2023-09-30T01:17:12;98520.00;;;17.40;71.37
40850;BME280;26571;41.610;25.380;2023-09-30T01:19:39;98515.72;;;17.39;69.93
40850;BME280;26571;41.610;25.380;2023-09-30T01:22:05;98517.53;;;17.45;69.88
40850;BME280;26571;41.610;25.380;2023-09-30T01:24:31;98518.38;;;17.39;70.17
40850;BME280;26571;41.610;25.380;2023-09-30T01:26:57;98520.25;;;17.32;70.23
40850;BME280;26571;41.610;25.380;2023-09-30T01:29:23;98519.03;;;17.28;69.68
40850;BME280;26571;41.610;25.380;2023-09-30T01:31:51;98508.41;;;17.21;69.91
40850;BME280;26571;41.610;25.380;2023-09-30T01:34:16;98518.19;;;17.34;69.61
40850;BME280;26571;41.610;25.380;2023-09-30T01:36:42;98516.16;;;17.29;69.87
40850;BME280;26571;41.610;25.380;2023-09-30T01:39:11;98515.53;;;17.34;70.47
40850;BME280;26571;41.610;25.380;2023-09-30T01:41:37;98477.09;;;17.10;71.00
40850;BME280;26571;41.610;25.380;2023-09-30T01:44:03;98512.88;;;17.27;70.98
40850;BME280;26571;41.610;25.380;2023-09-30T01:46:29;98513.91;;;17.20;70.87
40850;BME280;26571;41.610;25.380;2023-09-30T01:48:54;98513.72;;;17.28;71.02
40850;BME280;26571;41.610;25.380;2023-09-30T01:51:20;98487.75;;;17.03;71.23
40850;BME280;26571;41.610;25.380;2023-09-30T01:53:47;98511.69;;;17.17;71.03
40850;BME280;26571;41.610;25.380;2023-09-30T01:56:12;98516.81;;;17.12;71.00
40850;BME280;26571;41.610;25.380;2023-09-30T01:58:38;98513.34;;;17.11;70.86
40850;BME280;26571;41.610;25.380;2023-09-30T02:01:03;98505.94;;;17.13;70.84
40850;BME280;26571;41.610;25.380;2023-09-30T02:03:29;98486.75;;;16.91;71.52
40850;BME280;26571;41.610;25.380;2023-09-30T02:05:55;98508.81;;;17.05;71.59
40850;BME280;26571;41.610;25.380;2023-09-30T02:08:21;98508.81;;;16.98;71.57
40850;BME280;26571;41.610;25.380;2023-09-30T02:10:47;98511.69;;;16.97;71.60
40850;BME280;26571;41.610;25.380;2023-09-30T02:13:13;98513.72;;;16.95;71.33
40850;BME280;26571;41.610;25.380;2023-09-30T02:15:41;98506.97;;;16.99;70.70
40850;BME280;26571;41.610;25.380;2023-09-30T02:18:07;98509.03;;;16.90;71.24
40850;BME280;26571;41.610;25.380;2023-09-30T02:20:32;98513.34;;;16.91;70.51
40850;BME280;26571;41.610;25.380;2023-09-30T02:22:58;98491.22;;;16.84;69.74
40850;BME280;26571;41.610;25.380;2023-09-30T02:25:24;98510.69;;;16.91;70.09
40850;BME280;26571;41.610;25.380;2023-09-30T02:27:50;98503.50;;;16.78;71.14
40850;BME280;26571;41.610;25.380;2023-09-30T02:30:15;98506.16;;;16.85;70.65
40850;BME280;26571;41.610;25.380;2023-09-30T02:32:42;98502.06;;;16.89;70.19
40850;BME280;26571;41.610;25.380;2023-09-30T02:35:08;98513.94;;;16.87;70.32
40850;BME280;26571;41.610;25.380;2023-09-30T02:37:36;98505.16;;;16.86;70.34
40850;BME280;26571;41.610;25.380;2023-09-30T02:40:05;98502.91;;;16.83;71.03
40850;BME280;26571;41.610;25.380;2023-09-30T02:42:39;98501.84;;;16.71;71.34
40850;BME280;26571;41.610;25.380;2023-09-30T02:45:05;98503.06;;;16.68;71.68
40850;BME280;26571;41.610;25.380;2023-09-30T02:47:32;98503.28;;;16.67;71.69
40850;BME280;26571;41.610;25.380;2023-09-30T02:49:57;98504.34;;;16.72;71.43
40850;BME280;26571;41.610;25.380;2023-09-30T02:52:24;98498.81;;;16.74;70.89
40850;BME280;26571;41.610;25.380;2023-09-30T02:54:49;98507.56;;;16.68;71.52
40850;BME280;26571;41.610;25.380;2023-09-30T02:57:15;98485.88;;;16.58;70.30
40850;BME280;26571;41.610;25.380;2023-09-30T02:59:41;98498.19;;;16.85;69.52
40850;BME280;26571;41.610;25.380;2023-09-30T03:02:07;98504.34;;;16.92;68.76
40850;BME280;26571;41.610;25.380;2023-09-30T03:04:32;98357.09;;;16.00;68.26
40850;BME280;26571;41.610;25.380;2023-09-30T03:06:58;98502.06;;;16.89;69.20
40850;BME280;26571;41.610;25.380;2023-09-30T03:09:23;98490.00;;;16.67;70.09
40850;BME280;26571;41.610;25.380;2023-09-30T03:11:49;98500.44;;;16.75;70.06
40850;BME280;26571;41.610;25.380;2023-09-30T03:14:15;98463.00;;;16.57;69.72
40850;BME280;26571;41.610;25.380;2023-09-30T03:16:40;98503.88;;;16.69;70.89
40850;BME280;26571;41.610;25.380;2023-09-30T03:19:07;98503.47;;;16.65;70.80
40850;BME280;26571;41.610;25.380;2023-09-30T03:21:37;98506.34;;;16.64;70.84
40850;BME280;26571;41.610;25.380;2023-09-30T03:24:05;98502.66;;;16.65;70.50
40850;BME280;26571;41.610;25.380;2023-09-30T03:26:33;98483.84;;;16.60;69.31
40850;BME280;26571;41.610;25.380;2023-09-30T03:28:59;98490.56;;;16.55;69.30
40850;BME280;26571;41.610;25.380;2023-09-30T03:31:24;98508.38;;;16.62;70.00
40850;BME280;26571;41.610;25.380;2023-09-30T03:33:51;98510.22;;;16.61;70.06
40850;BME280;26571;41.610;25.380;2023-09-30T03:36:20;98514.09;;;16.59;71.20
40850;BME280;26571;41.610;25.380;2023-09-30T03:38:45;98512.03;;;16.47;70.98
40850;BME280;26571;41.610;25.380;2023-09-30T03:41:11;98505.88;;;16.40;71.71
40850;BME280;26571;41.610;25.380;2023-09-30T03:43:39;98500.34;;;16.28;71.28
40850;BME280;26571;41.610;25.380;2023-09-30T03:46:07;98509.81;;;16.51;70.01
40850;BME280;26571;41.610;25.380;2023-09-30T03:48:32;98518.81;;;16.57;69.95
40850;BME280;26571;41.610;25.380;2023-09-30T03:51:08;98506.91;;;16.39;71.69
40850;BME280;26571;41.610;25.380;2023-09-30T03:53:33;98521.41;;;16.30;72.15
40850;BME280;26571;41.610;25.380;2023-09-30T03:55:59;98513.25;;;16.32;72.10
40850;BME280;26571;41.610;25.380;2023-09-30T03:58:24;98517.31;;;16.27;72.35
40850;BME280;26571;41.610;25.380;2023-09-30T04:00:50;98521.41;;;16.30;72.40
40850;BME280;26571;41.610;25.380;2023-09-30T04:03:17;98519.38;;;16.32;72.30
40850;BME280;26571;41.610;25.380;2023-09-30T04:05:42;98517.75;;;16.31;72.31
40850;BME280;26571;41.610;25.380;2023-09-30T04:08:07;98519.94;;;16.21;73.15
40850;BME280;26571;41.610;25.380;2023-09-30T04:10:33;98516.88;;;16.17;73.33
40850;BME280;26571;41.610;25.380;2023-09-30T04:12:58;98514.84;;;16.19;73.51
40850;BME280;26571;41.610;25.380;2023-09-30T04:15:24;98518.09;;;16.15;73.52
40850;BME280;26571;41.610;25.380;2023-09-30T04:17:49;98520.53;;;16.10;73.90
40850;BME280;26571;41.610;25.380;2023-09-30T04:20:14;98509.47;;;16.06;73.80
40850;BME280;26571;41.610;25.380;2023-09-30T04:22:46;98519.13;;;16.14;73.71
40850;BME280;26571;41.610;25.380;2023-09-30T04:25:13;98518.09;;;16.15;73.36
40850;BME280;26571;41.610;25.380;2023-09-30T04:27:45;98514.44;;;16.22;72.79
40850;BME280;26571;41.610;25.380;2023-09-30T04:30:13;98524.69;;;16.39;72.59
40850;BME280;26571;41.610;25.380;2023-09-30T04:32:40;98532.66;;;16.39;72.73
40850;BME280;26571;41.610;25.380;2023-09-30T04:35:06;98517.78;;;16.51;72.12
40850;BME280;26571;41.610;25.380;2023-09-30T04:37:35;98524.94;;;16.64;71.57
40850;BME280;26571;41.610;25.380;2023-09-30T04:40:04;98529.28;;;16.78;70.60
40850;BME280;26571;41.610;25.380;2023-09-30T04:42:33;98527.84;;;16.82;70.81
40850;BME280;26571;41.610;25.380;2023-09-30T04:45:01;98524.38;;;16.88;70.99
40850;BME280;26571;41.610;25.380;2023-09-30T04:47:28;98534.22;;;17.01;70.56
40850;BME280;26571;41.610;25.380;2023-09-30T04:49:53;98540.34;;;17.01;70.52
40850;BME280;26571;41.610;25.380;2023-09-30T04:52:19;98536.66;;;17.16;69.96
40850;BME280;26571;41.610;25.380;2023-09-30T04:54:45;98526.00;;;17.36;69.51
40850;BME280;26571;41.610;25.380;2023-09-30T04:57:11;98536.00;;;18.12;66.40
40850;BME280;26571;41.610;25.380;2023-09-30T04:59:36;98545.28;;;18.79;63.40
40850;BME280;26571;41.610;25.380;2023-09-30T05:02:02;98543.69;;;19.46;60.71
40850;BME280;26571;41.610;25.380;2023-09-30T05:04:28;98532.72;;;20.09;57.80
40850;BME280;26571;41.610;25.380;2023-09-30T05:06:54;98533.69;;;20.87;53.97
40850;BME280;26571;41.610;25.380;2023-09-30T05:09:20;98547.56;;;21.78;51.39
40850;BME280;26571;41.610;25.380;2023-09-30T05:11:46;98550.28;;;22.58;48.71
40850;BME280;26571;41.610;25.380;2023-09-30T05:14:11;98544.63;;;23.39;46.39
40850;BME280;26571;41.610;25.380;2023-09-30T05:16:37;98546.41;;;24.11;44.56
40850;BME280;26571;41.610;25.380;2023-09-30T05:19:02;98549.03;;;24.77;43.10
40850;BME280;26571;41.610;25.380;2023-09-30T05:21:28;98525.25;;;25.33;41.35
40850;BME280;26571;41.610;25.380;2023-09-30T05:23:54;98541.28;;;26.07;39.33
40850;BME280;26571;41.610;25.380;2023-09-30T05:26:19;98545.25;;;26.67;38.63
40850;BME280;26571;41.610;25.380;2023-09-30T05:28:45;98549.88;;;27.18;37.51
40850;BME280;26571;41.610;25.380;2023-09-30T05:31:11;98553.88;;;27.71;36.49
40850;BME280;26571;41.610;25.380;2023-09-30T05:33:36;98550.69;;;28.19;35.34
40850;BME280;26571;41.610;25.380;2023-09-30T05:36:03;98547.56;;;28.56;34.83
40850;BME280;26571;41.610;25.380;2023-09-30T05:38:29;98558.06;;;29.07;34.22
40850;BME280;26571;41.610;25.380;2023-09-30T05:40:56;98562.00;;;29.54;33.74
40850;BME280;26571;41.610;25.380;2023-09-30T05:43:24;98556.56;;;30.02;32.96
40850;BME280;26571;41.610;25.380;2023-09-30T05:45:50;98561.47;;;30.43;32.12
40850;BME280;26571;41.610;25.380;2023-09-30T05:48:20;98561.56;;;30.94;31.31
40850;BME280;26571;41.610;25.380;2023-09-30T05:50:46;98547.41;;;31.30;30.76
40850;BME280;26571;41.610;25.380;2023-09-30T05:53:12;98559.56;;;31.79;29.61
40850;BME280;26571;41.610;25.380;2023-09-30T05:55:39;98530.03;;;32.00;29.06
40850;BME280;26571;41.610;25.380;2023-09-30T05:58:06;98565.84;;;32.57;28.23
40850;BME280;26571;41.610;25.380;2023-09-30T06:00:32;98573.25;;;32.92;27.74
40850;BME280;26571;41.610;25.380;2023-09-30T06:03:00;98565.50;;;33.39;26.69
40850;BME280;26571;41.610;25.380;2023-09-30T06:05:27;98572.28;;;33.73;26.92
40850;BME280;26571;41.610;25.380;2023-09-30T06:07:55;98559.06;;;34.06;25.80
40850;BME280;26571;41.610;25.380;2023-09-30T06:10:20;98560.59;;;34.38;25.88
40850;BME280;26571;41.610;25.380;2023-09-30T06:12:46;98551.94;;;34.71;24.48
40850;BME280;26571;41.610;25.380;2023-09-30T06:15:16;98541.31;;;34.95;24.33
40850;BME280;26571;41.610;25.380;2023-09-30T06:17:47;98558.63;;;35.43;24.24
40850;BME280;26571;41.610;25.380;2023-09-30T06:20:13;98562.31;;;35.85;24.21
40850;BME280;26571;41.610;25.380;2023-09-30T06:22:44;98564.44;;;36.18;23.58
40850;BME280;26571;41.610;25.380;2023-09-30T06:25:14;98556.59;;;36.37;22.90
40850;BME280;26571;41.610;25.380;2023-09-30T06:27:47;98555.78;;;36.79;22.39
40850;BME280;26571;41.610;25.380;2023-09-30T06:30:14;98558.16;;;37.22;21.96
40850;BME280;26571;41.610;25.380;2023-09-30T06:32:43;98552.66;;;37.34;21.40
40850;BME280;26571;41.610;25.380;2023-09-30T06:35:10;98557.31;;;37.55;21.28
40850;BME280;26571;41.610;25.380;2023-09-30T06:37:40;98532.81;;;37.49;20.85
40850;BME280;26571;41.610;25.380;2023-09-30T06:40:09;98541.31;;;37.93;20.68
40850;BME280;26571;41.610;25.380;2023-09-30T06:42:36;98559.06;;;38.08;19.67
40850;BME280;26571;41.610;25.380;2023-09-30T06:45:02;98547.28;;;37.95;19.51
40850;BME280;26571;41.610;25.380;2023-09-30T06:47:35;98551.16;;;37.70;19.17
40850;BME280;26571;41.610;25.380;2023-09-30T06:50:02;98556.56;;;37.33;19.21
40850;BME280;26571;41.610;25.380;2023-09-30T06:52:40;98545.72;;;37.04;18.88
40850;BME280;26571;41.610;25.380;2023-09-30T06:55:07;98550.97;;;36.96;19.14
40850;BME280;26571;41.610;25.380;2023-09-30T06:57:34;98551.38;;;36.86;18.58
40850;BME280;26571;41.610;25.380;2023-09-30T07:00:01;98549.25;;;36.92;18.84
40850;BME280;26571;41.610;25.380;2023-09-30T07:02:28;98520.88;;;36.67;18.99
40850;BME280;26571;41.610;25.380;2023-09-30T07:04:54;98545.63;;;36.37;19.51
40850;BME280;26571;41.610;25.380;2023-09-30T07:07:19;98546.44;;;36.08;19.34
40850;BME280;26571;41.610;25.380;2023-09-30T07:09:44;98545.03;;;35.64;19.48
40850;BME280;26571;41.610;25.380;2023-09-30T07:12:10;98544.16;;;35.34;20.38
40850;BME280;26571;41.610;25.380;2023-09-30T07:14:35;98562.75;;;35.02;20.08
40850;BME280;26571;41.610;25.380;2023-09-30T07:17:01;98543.13;;;34.57;20.78
40850;BME280;26571;41.610;25.380;2023-09-30T07:19:29;98539.34;;;34.18;20.68
40850;BME280;26571;41.610;25.380;2023-09-30T07:21:56;98544.00;;;33.69;21.14
40850;BME280;26571;41.610;25.380;2023-09-30T07:24:21;98545.06;;;33.28;21.14
40850;BME280;26571;41.610;25.380;2023-09-30T07:26:47;98551.91;;;32.95;22.07
40850;BME280;26571;41.610;25.380;2023-09-30T07:29:12;98541.78;;;32.73;21.66
40850;BME280;26571;41.610;25.380;2023-09-30T07:31:37;98545.59;;;32.49;22.10
40850;BME280;26571;41.610;25.380;2023-09-30T07:34:03;98540.41;;;31.98;22.20
40850;BME280;26571;41.610;25.380;2023-09-30T07:36:28;98549.16;;;31.67;22.12
40850;BME280;26571;41.610;25.380;2023-09-30T07:38:54;98545.53;;;31.58;22.57
40850;BME280;26571;41.610;25.380;2023-09-30T07:41:20;98537.00;;;31.32;22.66
40850;BME280;26571;41.610;25.380;2023-09-30T07:43:46;98542.19;;;31.14;22.91
40850;BME280;26571;41.610;25.380;2023-09-30T07:46:11;98520.66;;;30.85;23.18
40850;BME280;26571;41.610;25.380;2023-09-30T07:48:36;98543.38;;;30.76;23.09
40850;BME280;26571;41.610;25.380;2023-09-30T07:51:04;98548.28;;;30.55;23.34
40850;BME280;26571;41.610;25.380;2023-09-30T07:53:31;98533.88;;;30.35;23.41
40850;BME280;26571;41.610;25.380;2023-09-30T07:55:57;98541.97;;;30.41;23.37
40850;BME280;26571;41.610;25.380;2023-09-30T07:58:22;98538.50;;;30.35;23.67
40850;BME280;26571;41.610;25.380;2023-09-30T08:00:48;98511.25;;;30.21;23.47
40850;BME280;26571;41.610;25.380;2023-09-30T08:03:13;98536.28;;;30.37;23.56
40850;BME280;26571;41.610;25.380;2023-09-30T08:05:38;98535.94;;;30.25;23.27
40850;BME280;26571;41.610;25.380;2023-09-30T08:08:04;98536.84;;;30.39;22.88
40850;BME280;26571;41.610;25.380;2023-09-30T08:10:31;98524.09;;;30.16;23.18
40850;BME280;26571;41.610;25.380;2023-09-30T08:12:57;98497.56;;;30.07;23.63
40850;BME280;26571;41.610;25.380;2023-09-30T08:15:24;98541.16;;;30.40;23.67
40850;BME280;26571;41.610;25.380;2023-09-30T08:17:50;98543.00;;;30.45;23.29
40850;BME280;26571;41.610;25.380;2023-09-30T08:20:15;98533.66;;;30.51;23.45
40850;BME280;26571;41.610;25.380;2023-09-30T08:22:41;98543.28;;;30.62;23.19
40850;BME280;26571;41.610;25.380;2023-09-30T08:25:07;98506.66;;;30.41;23.38
40850;BME280;26571;41.610;25.380;2023-09-30T08:27:32;98540.63;;;30.57;22.97
40850;BME280;26571;41.610;25.380;2023-09-30T08:29:58;98539.16;;;30.46;23.01
40850;BME280;26571;41.610;25.380;2023-09-30T08:32:23;98534.53;;;30.27;22.83
40850;BME280;26571;41.610;25.380;2023-09-30T08:34:48;98538.34;;;30.26;23.29
40850;BME280;26571;41.610;25.380;2023-09-30T08:37:14;98527.94;;;30.33;23.39
40850;BME280;26571;41.610;25.380;2023-09-30T08:39:40;98535.19;;;30.38;23.17
40850;BME280;26571;41.610;25.380;2023-09-30T08:42:09;98530.19;;;30.26;22.68
40850;BME280;26571;41.610;25.380;2023-09-30T08:44:38;98512.81;;;29.84;23.19
40850;BME280;26571;41.610;25.380;2023-09-30T08:47:06;98534.53;;;29.84;23.42
40850;BME280;26571;41.610;25.380;2023-09-30T08:49:38;98524.91;;;29.92;23.27
40850;BME280;26571;41.610;25.380;2023-09-30T08:52:07;98538.03;;;30.09;23.89
40850;BME280;26571;41.610;25.380;2023-09-30T08:54:34;98534.16;;;30.15;23.00
40850;BME280;26571;41.610;25.380;2023-09-30T08:57:00;98539.59;;;30.15;22.62
40850;BME280;26571;41.610;25.380;2023-09-30T08:59:27;98525.56;;;30.27;23.46
40850;BME280;26571;41.610;25.380;2023-09-30T09:01:52;98425.78;;;29.76;23.56
40850;BME280;26571;41.610;25.380;2023-09-30T09:04:18;98526.69;;;30.45;23.71
40850;BME280;26571;41.610;25.380;2023-09-30T09:06:43;98534.69;;;30.55;22.79
40850;BME280;26571;41.610;25.380;2023-09-30T09:09:27;98523.97;;;30.63;22.65
40850;BME280;26571;41.610;25.380;2023-09-30T09:11:53;98530.00;;;30.79;22.76
40850;BME280;26571;41.610;25.380;2023-09-30T09:14:18;98486.28;;;30.57;22.73
40850;BME280;26571;41.610;25.380;2023-09-30T09:16:54;98489.72;;;30.62;22.77
40850;BME280;26571;41.610;25.380;2023-09-30T09:19:20;98520.50;;;30.77;22.21
40850;BME280;26571;41.610;25.380;2023-09-30T09:21:55;98520.34;;;30.68;23.27
40850;BME280;26571;41.610;25.380;2023-09-30T09:24:35;98518.22;;;30.65;22.83
40850;BME280;26571;41.610;25.380;2023-09-30T09:27:09;98522.34;;;30.62;23.41
40850;BME280;26571;41.610;25.380;2023-09-30T09:29:35;98499.44;;;30.50;23.15
40850;BME280;26571;41.610;25.380;2023-09-30T09:32:12;98489.09;;;30.33;23.08
40850;BME280;26571;41.610;25.380;2023-09-30T09:34:39;98510.38;;;30.45;23.39
40850;BME280;26571;41.610;25.380;2023-09-30T09:37:25;98490.28;;;30.46;23.53
40850;BME280;26571;41.610;25.380;2023-09-30T09:39:58;98506.94;;;30.39;23.52
40850;BME280;26571;41.610;25.380;2023-09-30T09:42:28;98500.34;;;30.45;24.12
40850;BME280;26571;41.610;25.380;2023-09-30T09:44:58;98505.03;;;30.40;23.95
40850;BME280;26571;41.610;25.380;2023-09-30T09:47:24;98472.06;;;30.27;23.72
40850;BME280;26571;41.610;25.380;2023-09-30T09:49:51;98499.53;;;30.45;24.04
40850;BME280;26571;41.610;25.380;2023-09-30T09:52:18;98508.84;;;30.38;23.90
40850;BME280;26571;41.610;25.380;2023-09-30T09:54:45;98482.13;;;30.27;23.40
40850;BME280;26571;41.610;25.380;2023-09-30T09:57:12;98496.66;;;30.17;23.94
40850;BME280;26571;41.610;25.380;2023-09-30T09:59:41;98497.88;;;30.06;23.81
40850;BME280;26571;41.610;25.380;2023-09-30T10:02:11;98479.56;;;29.93;24.24
40850;BME280;26571;41.610;25.380;2023-09-30T10:04:43;98490.28;;;30.03;24.83
40850;BME280;26571;41.610;25.380;2023-09-30T10:07:12;98476.59;;;29.94;25.04
40850;BME280;26571;41.610;25.380;2023-09-30T10:09:41;98463.44;;;30.01;24.49
40850;BME280;26571;41.610;25.380;2023-09-30T10:12:09;98483.72;;;30.09;24.00
40850;BME280;26571;41.610;25.380;2023-09-30T10:14:35;98476.16;;;30.06;23.56
40850;BME280;26571;41.610;25.380;2023-09-30T10:17:02;98464.03;;;29.98;22.94
40850;BME280;26571;41.610;25.380;2023-09-30T10:19:28;98486.94;;;29.68;23.65
40850;BME280;26571;41.610;25.380;2023-09-30T10:24:48;98447.69;;;29.60;23.60
40850;BME280;26571;41.610;25.380;2023-09-30T10:27:33;98446.22;;;29.68;23.15
40850;BME280;26571;41.610;25.380;2023-09-30T10:37:44;98426.47;;;29.86;23.55
40850;BME280;26571;41.610;25.380;2023-09-30T10:40:10;98419.19;;;29.82;23.44
40850;BME280;26571;41.610;25.380;2023-09-30T10:42:50;98452.50;;;30.06;22.99
40850;BME280;26571;41.610;25.380;2023-09-30T10:50:56;98430.91;;;29.77;23.15
40850;BME280;26571;41.610;25.380;2023-09-30T10:53:25;98441.63;;;29.45;23.03
40850;BME280;26571;41.610;25.380;2023-09-30T10:55:59;98447.09;;;29.40;24.08
40850;BME280;26571;41.610;25.380;2023-09-30T10:58:48;98445.09;;;29.50;23.84
40850;BME280;26571;41.610;25.380;2023-09-30T11:01:23;98448.00;;;29.59;23.72
40850;BME280;26571;41.610;25.380;2023-09-30T11:03:58;98438.75;;;29.60;23.13
40850;BME280;26571;41.610;25.380;2023-09-30T11:06:23;98440.44;;;29.56;23.47
40850;BME280;26571;41.610;25.380;2023-09-30T11:08:54;98450.78;;;29.49;23.47
40850;BME280;26571;41.610;25.380;2023-09-30T11:14:00;98449.75;;;29.45;23.62
40850;BME280;26571;41.610;25.380;2023-09-30T11:16:25;98444.34;;;29.45;23.79
40850;BME280;26571;41.610;25.380;2023-09-30T11:18:54;98440.72;;;29.54;24.15
40850;BME280;26571;41.610;25.380;2023-09-30T11:21:20;98452.41;;;29.50;23.84
40850;BME280;26571;41.610;25.380;2023-09-30T11:23:45;98443.22;;;29.46;23.97
40850;BME280;26571;41.610;25.380;2023-09-30T11:26:11;98436.72;;;29.47;23.99
40850;BME280;26571;41.610;25.380;2023-09-30T11:28:44;98436.31;;;29.58;23.54
40850;BME280;26571;41.610;25.380;2023-09-30T11:31:13;98431.78;;;29.49;24.06
40850;BME280;26571;41.610;25.380;2023-09-30T11:33:53;98435.59;;;29.48;23.82
40850;BME280;26571;41.610;25.380;2023-09-30T11:36:21;98421.72;;;29.30;24.00
40850;BME280;26571;41.610;25.380;2023-09-30T11:38:49;98431.25;;;28.99;24.33
40850;BME280;26571;41.610;25.380;2023-09-30T11:41:16;98412.59;;;28.63;24.77
40850;BME280;26571;41.610;25.380;2023-09-30T11:44:01;98428.84;;;28.63;24.57
40850;BME280;26571;41.610;25.380;2023-09-30T11:46:27;98408.50;;;28.37;25.36
40850;BME280;26571;41.610;25.380;2023-09-30T11:49:00;98440.81;;;28.57;24.78
40850;BME280;26571;41.610;25.380;2023-09-30T11:51:27;98436.16;;;28.63;25.05
40850;BME280;26571;41.610;25.380;2023-09-30T11:53:54;98412.28;;;28.70;25.00
40850;BME280;26571;41.610;25.380;2023-09-30T11:56:20;98435.06;;;28.64;24.65
40850;BME280;26571;41.610;25.380;2023-09-30T11:58:47;98427.78;;;28.59;24.79
40850;BME280;26571;41.610;25.380;2023-09-30T12:01:14;98421.91;;;28.52;25.04
40850;BME280;26571;41.610;25.380;2023-09-30T12:03:40;98427.47;;;28.31;25.46
40850;BME280;26571;41.610;25.380;2023-09-30T12:06:08;98415.81;;;28.31;25.15
40850;BME280;26571;41.610;25.380;2023-09-30T12:08:39;98414.22;;;28.30;25.29
40850;BME280;26571;41.610;25.380;2023-09-30T12:11:05;98429.63;;;28.29;25.29
40850;BME280;26571;41.610;25.380;2023-09-30T12:13:31;98426.34;;;28.38;25.68
40850;BME280;26571;41.610;25.380;2023-09-30T12:15:56;98427.41;;;28.42;25.27
40850;BME280;26571;41.610;25.380;2023-09-30T12:18:22;98422.28;;;28.40;24.35
40850;BME280;26571;41.610;25.380;2023-09-30T12:20:50;98426.00;;;28.10;24.72
40850;BME280;26571;41.610;25.380;2023-09-30T12:23:17;98419.59;;;27.96;25.01
40850;BME280;26571;41.610;25.380;2023-09-30T12:25:43;98415.25;;;27.95;24.90
40850;BME280;26571;41.610;25.380;2023-09-30T12:28:09;98417.91;;;28.05;25.69
40850;BME280;26571;41.610;25.380;2023-09-30T12:30:34;98407.00;;;28.15;24.31
40850;BME280;26571;41.610;25.380;2023-09-30T12:33:00;98404.31;;;28.15;24.55
40850;BME280;26571;41.610;25.380;2023-09-30T12:35:26;98395.25;;;27.91;24.73
40850;BME280;26571;41.610;25.380;2023-09-30T12:37:51;98401.72;;;27.90;25.15
40850;BME280;26571;41.610;25.380;2023-09-30T12:40:16;98385.84;;;27.78;24.34
40850;BME280;26571;41.610;25.380;2023-09-30T12:42:43;98365.09;;;27.58;25.25
40850;BME280;26571;41.610;25.380;2023-09-30T12:45:10;98392.31;;;27.82;25.35
40850;BME280;26571;41.610;25.380;2023-09-30T12:47:35;98391.53;;;27.81;25.51
40850;BME280;26571;41.610;25.380;2023-09-30T12:50:00;98387.19;;;27.86;25.50
40850;BME280;26571;41.610;25.380;2023-09-30T12:52:26;98403.94;;;27.82;25.64
40850;BME280;26571;41.610;25.380;2023-09-30T12:54:52;98383.91;;;27.83;26.11
40850;BME280;26571;41.610;25.380;2023-09-30T12:57:17;98386.03;;;27.92;25.88
40850;BME280;26571;41.610;25.380;2023-09-30T12:59:44;98385.50;;;27.95;25.83
40850;BME280;26571;41.610;25.380;2023-09-30T13:02:12;98378.19;;;27.95;25.80
40850;BME280;26571;41.610;25.380;2023-09-30T13:04:37;98385.44;;;28.05;25.05
40850;BME280;26571;41.610;25.380;2023-09-30T13:07:08;98363.00;;;27.94;25.12
40850;BME280;26571;41.610;25.380;2023-09-30T13:09:33;98361.63;;;27.52;25.64